Heartwell, Vermont
Current Conditions -  °F | °C
As of 3:15 AM on Thursday 29 Jan 2015 (Local Time) from KRUT Reporting Station
Clear Clear  
Wind Chill: -17°   Ceiling: Unl
Heat Index: -2°   Visibility: 10mi
Dew Point: -11°   Wind: 8mph
Humidity: 66%   Direction: 130°SE
Pressure: 30.3"   Gusts: NA
Location:  43.6369°N, 72.9375°W
Report Text: KRUT 290815Z 13007KT 10SM CLR M19/M24 A3030 RMK AO1
Loading
Personal Weather Stations






























Interactive Weather Map New forecast layout! Learn more

10-Day Weather Forecast

Advertisements
Track Severe Weather on mobile